sensor_id;sensor_type;location;lat;lon;timestamp;pressure;altitude;pressure_sealevel;temperature;humidity
81997;BME280;71500;50.806;8.774;2023-11-21T00:01:50;99052.15;;;9.03;80.28
81997;BME280;71500;50.806;8.774;2023-11-21T00:04:22;99056.16;;;9.04;80.23
81997;BME280;71500;50.806;8.774;2023-11-21T00:06:53;99061.21;;;9.03;80.26
81997;BME280;71500;50.806;8.774;2023-11-21T00:09:25;99061.16;;;9.03;80.18
81997;BME280;71500;50.806;8.774;2023-11-21T00:11:56;99058.85;;;9.07;80.20
81997;BME280;71500;50.806;8.774;2023-11-21T00:14:29;99050.15;;;9.07;80.17
81997;BME280;71500;50.806;8.774;2023-11-21T00:17:01;99051.89;;;9.07;80.17
81997;BME280;71500;50.806;8.774;2023-11-21T00:19:33;99050.03;;;9.10;80.35
81997;BME280;71500;50.806;8.774;2023-11-21T00:22:05;99053.50;;;9.13;80.29
81997;BME280;71500;50.806;8.774;2023-11-21T00:24:37;99050.36;;;9.14;80.26
81997;BME280;71500;50.806;8.774;2023-11-21T00:27:09;99048.34;;;9.08;80.15
81997;BME280;71500;50.806;8.774;2023-11-21T00:29:40;99052.89;;;8.97;80.30
81997;BME280;71500;50.806;8.774;2023-11-21T00:32:11;99052.38;;;8.91;80.39
81997;BME280;71500;50.806;8.774;2023-11-21T00:34:43;99050.84;;;8.91;80.44
81997;BME280;71500;50.806;8.774;2023-11-21T00:37:15;99053.84;;;8.97;80.51
81997;BME280;71500;50.806;8.774;2023-11-21T00:39:46;99053.16;;;8.98;80.30
81997;BME280;71500;50.806;8.774;2023-11-21T00:42:18;99052.23;;;9.00;80.17
81997;BME280;71500;50.806;8.774;2023-11-21T00:44:50;99052.52;;;9.03;80.15
81997;BME280;71500;50.806;8.774;2023-11-21T00:47:21;99051.85;;;9.03;80.13
81997;BME280;71500;50.806;8.774;2023-11-21T00:49:53;99053.32;;;9.02;80.18
81997;BME280;71500;50.806;8.774;2023-11-21T00:52:24;99057.75;;;9.00;80.12
81997;BME280;71500;50.806;8.774;2023-11-21T00:54:56;99057.84;;;8.97;80.15
81997;BME280;71500;50.806;8.774;2023-11-21T00:57:30;99063.20;;;8.96;80.26
81997;BME280;71500;50.806;8.774;2023-11-21T01:00:01;99064.98;;;8.97;80.25
81997;BME280;71500;50.806;8.774;2023-11-21T01:02:37;99065.27;;;8.97;80.10
81997;BME280;71500;50.806;8.774;2023-11-21T01:05:09;99063.08;;;9.00;80.07
81997;BME280;71500;50.806;8.774;2023-11-21T01:07:40;99069.59;;;9.02;79.97
81997;BME280;71500;50.806;8.774;2023-11-21T01:10:12;99069.26;;;9.02;79.90
81997;BME280;71500;50.806;8.774;2023-11-21T01:12:44;99066.66;;;9.03;79.89
81997;BME280;71500;50.806;8.774;2023-11-21T01:15:16;99069.20;;;9.02;79.81
81997;BME280;71500;50.806;8.774;2023-11-21T01:17:48;99070.98;;;9.02;79.70
81997;BME280;71500;50.806;8.774;2023-11-21T01:20:20;99074.66;;;9.01;79.66
81997;BME280;71500;50.806;8.774;2023-11-21T01:22:51;99075.70;;;8.99;79.79
81997;BME280;71500;50.806;8.774;2023-11-21T01:25:24;99080.48;;;8.99;79.67
81997;BME280;71500;50.806;8.774;2023-11-21T01:27:57;99079.81;;;8.97;79.77
81997;BME280;71500;50.806;8.774;2023-11-21T01:30:28;99086.04;;;8.95;79.50
81997;BME280;71500;50.806;8.774;2023-11-21T01:32:59;99083.29;;;8.94;79.50
81997;BME280;71500;50.806;8.774;2023-11-21T01:35:31;99089.97;;;8.91;79.43
81997;BME280;71500;50.806;8.774;2023-11-21T01:38:02;99091.29;;;8.88;79.38
81997;BME280;71500;50.806;8.774;2023-11-21T01:40:34;99095.66;;;8.85;79.30
81997;BME280;71500;50.806;8.774;2023-11-21T01:43:05;99099.48;;;8.82;79.26
81997;BME280;71500;50.806;8.774;2023-11-21T01:45:38;99105.98;;;8.78;79.32
81997;BME280;71500;50.806;8.774;2023-11-21T01:48:10;99105.48;;;8.74;79.31
81997;BME280;71500;50.806;8.774;2023-11-21T01:50:43;99106.23;;;8.68;79.48
81997;BME280;71500;50.806;8.774;2023-11-21T01:53:15;99112.40;;;8.63;79.58
81997;BME280;71500;50.806;8.774;2023-11-21T01:55:47;99115.05;;;8.61;79.73
81997;BME280;71500;50.806;8.774;2023-11-21T01:58:19;99120.41;;;8.62;79.72
81997;BME280;71500;50.806;8.774;2023-11-21T02:00:51;99117.85;;;8.63;79.76
81997;BME280;71500;50.806;8.774;2023-11-21T02:03:26;99119.77;;;8.63;79.76
81997;BME280;71500;50.806;8.774;2023-11-21T02:05:58;99118.35;;;8.64;79.74
81997;BME280;71500;50.806;8.774;2023-11-21T02:08:29;99118.27;;;8.63;79.89
81997;BME280;71500;50.806;8.774;2023-11-21T02:11:01;99120.33;;;8.59;79.90
81997;BME280;71500;50.806;8.774;2023-11-21T02:13:34;99124.80;;;8.50;79.99
81997;BME280;71500;50.806;8.774;2023-11-21T02:16:07;99121.33;;;8.41;80.21
81997;BME280;71500;50.806;8.774;2023-11-21T02:18:39;99119.15;;;8.31;80.14
81997;BME280;71500;50.806;8.774;2023-11-21T02:21:10;99112.83;;;8.27;80.35
81997;BME280;71500;50.806;8.774;2023-11-21T02:23:41;99112.05;;;8.24;80.40
81997;BME280;71500;50.806;8.774;2023-11-21T02:26:14;99111.45;;;8.27;80.56
81997;BME280;71500;50.806;8.774;2023-11-21T02:28:47;99113.21;;;8.31;80.51
81997;BME280;71500;50.806;8.774;2023-11-21T02:31:18;99116.84;;;8.33;80.50
81997;BME280;71500;50.806;8.774;2023-11-21T02:33:50;99115.00;;;8.36;80.48
81997;BME280;71500;50.806;8.774;2023-11-21T02:36:22;99110.09;;;8.38;80.18
81997;BME280;71500;50.806;8.774;2023-11-21T02:38:53;99111.13;;;8.38;80.38
81997;BME280;71500;50.806;8.774;2023-11-21T02:41:25;99111.91;;;8.37;80.32
81997;BME280;71500;50.806;8.774;2023-11-21T02:43:56;99115.20;;;8.36;80.27
81997;BME280;71500;50.806;8.774;2023-11-21T02:46:27;99112.48;;;8.35;80.23
81997;BME280;71500;50.806;8.774;2023-11-21T02:48:59;99109.45;;;8.35;80.29
81997;BME280;71500;50.806;8.774;2023-11-21T02:51:30;99111.11;;;8.34;80.33
81997;BME280;71500;50.806;8.774;2023-11-21T02:54:02;99114.02;;;8.33;80.31
81997;BME280;71500;50.806;8.774;2023-11-21T02:56:36;99120.27;;;8.35;80.18
81997;BME280;71500;50.806;8.774;2023-11-21T02:59:10;99119.73;;;8.35;80.33
81997;BME280;71500;50.806;8.774;2023-11-21T03:01:41;99122.35;;;8.35;80.26
81997;BME280;71500;50.806;8.774;2023-11-21T03:04:13;99121.70;;;8.35;80.33
81997;BME280;71500;50.806;8.774;2023-11-21T03:06:48;99125.17;;;8.35;80.43
81997;BME280;71500;50.806;8.774;2023-11-21T03:09:19;99133.96;;;8.36;80.39
81997;BME280;71500;50.806;8.774;2023-11-21T03:11:50;99133.19;;;8.35;80.37
81997;BME280;71500;50.806;8.774;2023-11-21T03:14:22;99137.29;;;8.36;80.37
81997;BME280;71500;50.806;8.774;2023-11-21T03:16:53;99138.12;;;8.37;80.26
81997;BME280;71500;50.806;8.774;2023-11-21T03:19:25;99139.30;;;8.38;80.41
81997;BME280;71500;50.806;8.774;2023-11-21T03:21:56;99138.77;;;8.38;80.50
81997;BME280;71500;50.806;8.774;2023-11-21T03:24:28;99141.92;;;8.38;80.39
81997;BME280;71500;50.806;8.774;2023-11-21T03:26:59;99144.14;;;8.39;80.18
81997;BME280;71500;50.806;8.774;2023-11-21T03:29:30;99144.99;;;8.39;80.23
81997;BME280;71500;50.806;8.774;2023-11-21T03:32:02;99154.19;;;8.39;80.29
81997;BME280;71500;50.806;8.774;2023-11-21T03:34:33;99154.92;;;8.39;80.27
81997;BME280;71500;50.806;8.774;2023-11-21T03:37:05;99152.32;;;8.37;80.03
81997;BME280;71500;50.806;8.774;2023-11-21T03:39:36;99155.79;;;8.35;80.05
81997;BME280;71500;50.806;8.774;2023-11-21T03:42:07;99159.24;;;8.36;80.07
81997;BME280;71500;50.806;8.774;2023-11-21T03:44:39;99158.41;;;8.38;79.94
81997;BME280;71500;50.806;8.774;2023-11-21T03:47:10;99156.06;;;8.36;80.13
81997;BME280;71500;50.806;8.774;2023-11-21T03:49:42;99156.49;;;8.29;80.09
81997;BME280;71500;50.806;8.774;2023-11-21T03:52:14;99155.80;;;8.21;80.25
81997;BME280;71500;50.806;8.774;2023-11-21T03:54:45;99156.98;;;8.16;80.18
81997;BME280;71500;50.806;8.774;2023-11-21T03:57:16;99157.69;;;8.16;80.31
81997;BME280;71500;50.806;8.774;2023-11-21T03:59:48;99163.09;;;8.19;80.46
81997;BME280;71500;50.806;8.774;2023-11-21T04:02:19;99166.32;;;8.20;80.40
81997;BME280;71500;50.806;8.774;2023-11-21T04:04:50;99172.59;;;8.21;80.44
81997;BME280;71500;50.806;8.774;2023-11-21T04:07:22;99168.63;;;8.24;80.36
81997;BME280;71500;50.806;8.774;2023-11-21T04:09:53;99171.98;;;8.28;80.24
81997;BME280;71500;50.806;8.774;2023-11-21T04:12:25;99169.23;;;8.29;80.27
81997;BME280;71500;50.806;8.774;2023-11-21T04:14:56;99172.08;;;8.33;80.24
81997;BME280;71500;50.806;8.774;2023-11-21T04:17:27;99175.52;;;8.32;80.40
81997;BME280;71500;50.806;8.774;2023-11-21T04:19:59;99178.42;;;8.33;80.34
81997;BME280;71500;50.806;8.774;2023-11-21T04:22:30;99177.95;;;8.33;80.24
81997;BME280;71500;50.806;8.774;2023-11-21T04:25:02;99186.72;;;8.32;80.35
81997;BME280;71500;50.806;8.774;2023-11-21T04:27:33;99187.21;;;8.30;80.35
81997;BME280;71500;50.806;8.774;2023-11-21T04:30:08;99184.58;;;8.30;80.34
81997;BME280;71500;50.806;8.774;2023-11-21T04:32:40;99183.73;;;8.31;80.25
81997;BME280;71500;50.806;8.774;2023-11-21T04:35:12;99194.66;;;8.34;80.19
81997;BME280;71500;50.806;8.774;2023-11-21T04:37:45;99200.35;;;8.35;80.21
81997;BME280;71500;50.806;8.774;2023-11-21T04:40:16;99205.57;;;8.36;80.19
81997;BME280;71500;50.806;8.774;2023-11-21T04:42:47;99213.34;;;8.36;80.25
81997;BME280;71500;50.806;8.774;2023-11-21T04:45:19;99214.40;;;8.36;80.20
81997;BME280;71500;50.806;8.774;2023-11-21T04:47:50;99216.52;;;8.36;80.27
81997;BME280;71500;50.806;8.774;2023-11-21T04:50:23;99222.89;;;8.36;80.30
81997;BME280;71500;50.806;8.774;2023-11-21T04:52:56;99232.20;;;8.35;80.04
81997;BME280;71500;50.806;8.774;2023-11-21T04:55:28;99232.38;;;8.33;80.05
81997;BME280;71500;50.806;8.774;2023-11-21T04:57:59;99237.59;;;8.30;80.16
81997;BME280;71500;50.806;8.774;2023-11-21T05:00:31;99240.77;;;8.30;80.03
81997;BME280;71500;50.806;8.774;2023-11-21T05:03:02;99236.94;;;8.28;79.94
81997;BME280;71500;50.806;8.774;2023-11-21T05:05:35;99238.30;;;8.26;79.93
81997;BME280;71500;50.806;8.774;2023-11-21T05:08:06;99241.31;;;8.26;80.14
81997;BME280;71500;50.806;8.774;2023-11-21T05:10:38;99241.14;;;8.24;80.02
81997;BME280;71500;50.806;8.774;2023-11-21T05:13:09;99244.28;;;8.22;79.96
81997;BME280;71500;50.806;8.774;2023-11-21T05:15:41;99250.42;;;8.21;80.01
81997;BME280;71500;50.806;8.774;2023-11-21T05:18:13;99252.59;;;8.18;80.03
81997;BME280;71500;50.806;8.774;2023-11-21T05:20:45;99251.65;;;8.15;79.90
81997;BME280;71500;50.806;8.774;2023-11-21T05:23:17;99252.25;;;8.12;79.93
81997;BME280;71500;50.806;8.774;2023-11-21T05:25:48;99258.02;;;8.09;80.00
81997;BME280;71500;50.806;8.774;2023-11-21T05:28:20;99256.95;;;8.09;79.84
81997;BME280;71500;50.806;8.774;2023-11-21T05:30:51;99260.73;;;8.06;79.81
81997;BME280;71500;50.806;8.774;2023-11-21T05:33:43;99261.39;;;8.05;79.82
81997;BME280;71500;50.806;8.774;2023-11-21T05:36:14;99268.48;;;8.05;79.92
81997;BME280;71500;50.806;8.774;2023-11-21T05:38:45;99268.07;;;8.03;79.94
81997;BME280;71500;50.806;8.774;2023-11-21T05:41:17;99274.91;;;8.02;79.97
81997;BME280;71500;50.806;8.774;2023-11-21T05:43:49;99279.92;;;8.01;79.93
81997;BME280;71500;50.806;8.774;2023-11-21T05:46:20;99284.48;;;7.99;80.01
81997;BME280;71500;50.806;8.774;2023-11-21T05:48:52;99282.61;;;7.97;79.97
81997;BME280;71500;50.806;8.774;2023-11-21T05:51:23;99287.45;;;7.96;79.96
81997;BME280;71500;50.806;8.774;2023-11-21T05:53:55;99284.81;;;7.96;79.97
81997;BME280;71500;50.806;8.774;2023-11-21T05:56:26;99286.09;;;7.95;79.93
81997;BME280;71500;50.806;8.774;2023-11-21T05:58:57;99289.65;;;7.95;79.80
81997;BME280;71500;50.806;8.774;2023-11-21T06:01:30;99291.84;;;7.96;79.84
81997;BME280;71500;50.806;8.774;2023-11-21T06:04:01;99296.46;;;7.96;79.95
81997;BME280;71500;50.806;8.774;2023-11-21T06:06:34;99298.58;;;7.96;79.97
81997;BME280;71500;50.806;8.774;2023-11-21T06:09:05;99300.73;;;7.95;79.87
81997;BME280;71500;50.806;8.774;2023-11-21T06:11:39;99306.15;;;7.96;79.95
81997;BME280;71500;50.806;8.774;2023-11-21T06:14:10;99311.86;;;7.96;79.90
81997;BME280;71500;50.806;8.774;2023-11-21T06:16:41;99311.73;;;7.93;79.95
81997;BME280;71500;50.806;8.774;2023-11-21T06:19:13;99316.77;;;7.92;79.99
81997;BME280;71500;50.806;8.774;2023-11-21T06:21:47;99316.23;;;7.92;79.98
81997;BME280;71500;50.806;8.774;2023-11-21T06:24:19;99321.45;;;7.95;80.00
81997;BME280;71500;50.806;8.774;2023-11-21T06:26:51;99310.87;;;7.89;80.11
81997;BME280;71500;50.806;8.774;2023-11-21T06:29:22;99319.19;;;7.97;79.91
81997;BME280;71500;50.806;8.774;2023-11-21T06:31:53;99326.25;;;7.99;79.99
81997;BME280;71500;50.806;8.774;2023-11-21T06:34:26;99327.54;;;8.00;79.95
81997;BME280;71500;50.806;8.774;2023-11-21T06:36:58;99332.15;;;8.00;79.83
81997;BME280;71500;50.806;8.774;2023-11-21T06:39:29;99335.56;;;8.02;79.93
81997;BME280;71500;50.806;8.774;2023-11-21T06:42:01;99339.55;;;8.02;79.77
81997;BME280;71500;50.806;8.774;2023-11-21T06:44:32;99344.35;;;8.02;79.69
81997;BME280;71500;50.806;8.774;2023-11-21T06:47:06;99331.96;;;7.96;79.78
81997;BME280;71500;50.806;8.774;2023-11-21T06:49:38;99345.50;;;8.03;79.62
81997;BME280;71500;50.806;8.774;2023-11-21T06:52:09;99344.65;;;8.05;79.59
81997;BME280;71500;50.806;8.774;2023-11-21T06:54:41;99350.08;;;8.08;79.52
81997;BME280;71500;50.806;8.774;2023-11-21T06:57:12;99351.15;;;8.09;79.52
81997;BME280;71500;50.806;8.774;2023-11-21T06:59:44;99356.42;;;8.12;79.58
81997;BME280;71500;50.806;8.774;2023-11-21T07:02:15;99358.37;;;8.12;79.33
81997;BME280;71500;50.806;8.774;2023-11-21T07:04:48;99362.34;;;8.13;79.39
81997;BME280;71500;50.806;8.774;2023-11-21T07:07:20;99364.48;;;8.15;79.43
81997;BME280;71500;50.806;8.774;2023-11-21T07:09:52;99366.73;;;8.15;79.24
81997;BME280;71500;50.806;8.774;2023-11-21T07:12:23;99369.58;;;8.15;79.31
81997;BME280;71500;50.806;8.774;2023-11-21T07:14:55;99374.71;;;8.13;79.23
81997;BME280;71500;50.806;8.774;2023-11-21T07:17:27;99389.15;;;8.14;79.35
81997;BME280;71500;50.806;8.774;2023-11-21T07:19:58;99396.77;;;8.18;79.08
81997;BME280;71500;50.806;8.774;2023-11-21T07:22:30;99399.55;;;8.20;79.12
81997;BME280;71500;50.806;8.774;2023-11-21T07:25:02;99401.67;;;8.23;79.00
81997;BME280;71500;50.806;8.774;2023-11-21T07:27:33;99398.66;;;8.25;78.88
81997;BME280;71500;50.806;8.774;2023-11-21T07:30:06;99397.19;;;8.26;78.88
81997;BME280;71500;50.806;8.774;2023-11-21T07:32:39;99400.30;;;8.26;78.78
81997;BME280;71500;50.806;8.774;2023-11-21T07:35:11;99401.55;;;8.26;78.80
81997;BME280;71500;50.806;8.774;2023-11-21T07:37:43;99408.64;;;8.26;78.81
81997;BME280;71500;50.806;8.774;2023-11-21T07:40:15;99415.76;;;8.25;78.78
81997;BME280;71500;50.806;8.774;2023-11-21T07:42:47;99412.58;;;8.25;78.93
81997;BME280;71500;50.806;8.774;2023-11-21T07:45:20;99413.28;;;8.27;79.01
81997;BME280;71500;50.806;8.774;2023-11-21T07:47:52;99415.17;;;8.28;78.85
81997;BME280;71500;50.806;8.774;2023-11-21T07:50:24;99415.58;;;8.32;78.82
81997;BME280;71500;50.806;8.774;2023-11-21T07:52:57;99422.13;;;8.36;78.67
81997;BME280;71500;50.806;8.774;2023-11-21T07:55:28;99423.97;;;8.37;78.76
81997;BME280;71500;50.806;8.774;2023-11-21T07:58:02;99430.02;;;8.41;78.74
81997;BME280;71500;50.806;8.774;2023-11-21T08:00:34;99437.35;;;8.44;78.79
81997;BME280;71500;50.806;8.774;2023-11-21T08:03:05;99441.02;;;8.45;78.77
81997;BME280;71500;50.806;8.774;2023-11-21T08:05:37;99442.17;;;8.47;78.66
81997;BME280;71500;50.806;8.774;2023-11-21T08:08:09;99450.80;;;8.50;78.69
81997;BME280;71500;50.806;8.774;2023-11-21T08:10:42;99450.61;;;8.52;78.64
81997;BME280;71500;50.806;8.774;2023-11-21T08:13:14;99453.34;;;8.53;78.75
81997;BME280;71500;50.806;8.774;2023-11-21T08:15:47;99456.16;;;8.55;78.60
81997;BME280;71500;50.806;8.774;2023-11-21T08:18:18;99459.83;;;8.60;78.48
81997;BME280;71500;50.806;8.774;2023-11-21T08:20:50;99456.30;;;8.64;78.36
81997;BME280;71500;50.806;8.774;2023-11-21T08:23:22;99457.70;;;8.66;78.41
81997;BME280;71500;50.806;8.774;2023-11-21T08:25:56;99460.73;;;8.68;78.25
81997;BME280;71500;50.806;8.774;2023-11-21T08:28:27;99468.52;;;8.68;78.08
81997;BME280;71500;50.806;8.774;2023-11-21T08:30:58;99472.98;;;8.68;78.17
81997;BME280;71500;50.806;8.774;2023-11-21T08:33:30;99473.30;;;8.68;78.15
81997;BME280;71500;50.806;8.774;2023-11-21T08:36:06;99471.14;;;8.68;78.24
81997;BME280;71500;50.806;8.774;2023-11-21T08:38:38;99475.39;;;8.68;78.25
81997;BME280;71500;50.806;8.774;2023-11-21T08:41:09;99479.84;;;8.66;78.17
81997;BME280;71500;50.806;8.774;2023-11-21T08:43:41;99485.17;;;8.64;78.14
81997;BME280;71500;50.806;8.774;2023-11-21T08:46:12;99487.79;;;8.62;78.25
81997;BME280;71500;50.806;8.774;2023-11-21T08:48:44;99489.27;;;8.61;78.25
81997;BME280;71500;50.806;8.774;2023-11-21T08:51:16;99487.72;;;8.63;78.19
81997;BME280;71500;50.806;8.774;2023-11-21T08:53:47;99486.75;;;8.64;78.18
81997;BME280;71500;50.806;8.774;2023-11-21T08:56:18;99486.42;;;8.66;78.24
81997;BME280;71500;50.806;8.774;2023-11-21T08:58:50;99483.77;;;8.68;78.40
81997;BME280;71500;50.806;8.774;2023-11-21T09:01:23;99487.16;;;8.71;78.29
81997;BME280;71500;50.806;8.774;2023-11-21T09:03:55;99486.56;;;8.74;78.24
81997;BME280;71500;50.806;8.774;2023-11-21T09:06:27;99488.46;;;8.79;78.26
81997;BME280;71500;50.806;8.774;2023-11-21T09:08:59;99487.20;;;8.83;78.17
81997;BME280;71500;50.806;8.774;2023-11-21T09:11:30;99488.45;;;8.87;78.07
81997;BME280;71500;50.806;8.774;2023-11-21T09:14:04;99491.02;;;8.90;78.17
81997;BME280;71500;50.806;8.774;2023-11-21T09:16:35;99496.13;;;8.94;77.99
81997;BME280;71500;50.806;8.774;2023-11-21T09:19:07;99504.95;;;8.99;77.96
81997;BME280;71500;50.806;8.774;2023-11-21T09:21:38;99508.83;;;9.07;77.92
81997;BME280;71500;50.806;8.774;2023-11-21T09:24:10;99507.62;;;9.13;77.65
81997;BME280;71500;50.806;8.774;2023-11-21T09:26:41;99515.21;;;9.17;77.71
81997;BME280;71500;50.806;8.774;2023-11-21T09:29:13;99516.22;;;9.22;77.45
81997;BME280;71500;50.806;8.774;2023-11-21T09:31:44;99515.42;;;9.26;77.55
81997;BME280;71500;50.806;8.774;2023-11-21T09:34:16;99521.20;;;9.31;77.31
81997;BME280;71500;50.806;8.774;2023-11-21T09:36:47;99522.95;;;9.35;77.39
81997;BME280;71500;50.806;8.774;2023-11-21T09:39:19;99528.36;;;9.40;77.50
81997;BME280;71500;50.806;8.774;2023-11-21T09:41:54;99526.66;;;9.46;77.22
81997;BME280;71500;50.806;8.774;2023-11-21T09:44:35;99529.61;;;9.51;76.91
81997;BME280;71500;50.806;8.774;2023-11-21T09:47:07;99533.15;;;9.55;76.81
81997;BME280;71500;50.806;8.774;2023-11-21T09:49:41;99532.60;;;9.61;76.63
81997;BME280;71500;50.806;8.774;2023-11-21T09:52:21;99539.48;;;9.67;76.41
81997;BME280;71500;50.806;8.774;2023-11-21T09:54:56;99542.89;;;9.72;76.32
81997;BME280;71500;50.806;8.774;2023-11-21T09:57:28;99542.28;;;9.79;76.15
81997;BME280;71500;50.806;8.774;2023-11-21T10:00:02;99547.71;;;9.86;76.21
81997;BME280;71500;50.806;8.774;2023-11-21T10:02:36;99547.27;;;9.92;76.00
81997;BME280;71500;50.806;8.774;2023-11-21T10:05:09;99547.38;;;9.99;75.67
81997;BME280;71500;50.806;8.774;2023-11-21T10:07:43;99552.42;;;10.06;75.73
81997;BME280;71500;50.806;8.774;2023-11-21T10:10:17;99550.92;;;10.11;75.70
81997;BME280;71500;50.806;8.774;2023-11-21T10:12:50;99551.49;;;10.14;75.25
81997;BME280;71500;50.806;8.774;2023-11-21T10:15:25;99557.77;;;10.14;75.20
81997;BME280;71500;50.806;8.774;2023-11-21T10:17:57;99560.05;;;10.14;75.19
81997;BME280;71500;50.806;8.774;2023-11-21T10:20:30;99562.45;;;10.15;75.17
81997;BME280;71500;50.806;8.774;2023-11-21T10:23:03;99557.20;;;10.16;75.20
81997;BME280;71500;50.806;8.774;2023-11-21T10:25:38;99557.88;;;10.20;74.83
81997;BME280;71500;50.806;8.774;2023-11-21T10:28:10;99554.35;;;10.24;74.97
81997;BME280;71500;50.806;8.774;2023-11-21T10:30:42;99558.59;;;10.30;74.58
81997;BME280;71500;50.806;8.774;2023-11-21T10:33:14;99558.21;;;10.30;74.49
81997;BME280;71500;50.806;8.774;2023-11-21T10:35:46;99560.99;;;10.34;74.51
81997;BME280;71500;50.806;8.774;2023-11-21T10:38:22;99562.67;;;10.41;74.25
81997;BME280;71500;50.806;8.774;2023-11-21T10:40:54;99565.27;;;10.46;73.94
81997;BME280;71500;50.806;8.774;2023-11-21T10:43:27;99570.05;;;10.50;73.46
81997;BME280;71500;50.806;8.774;2023-11-21T10:45:59;99569.50;;;10.50;73.42
81997;BME280;71500;50.806;8.774;2023-11-21T10:48:33;99578.56;;;10.50;73.45
81997;BME280;71500;50.806;8.774;2023-11-21T10:51:09;99578.55;;;10.48;73.40
81997;BME280;71500;50.806;8.774;2023-11-21T10:53:42;99578.08;;;10.47;73.24
81997;BME280;71500;50.806;8.774;2023-11-21T10:56:19;99577.09;;;10.41;73.05
81997;BME280;71500;50.806;8.774;2023-11-21T10:58:51;99576.29;;;10.34;73.04
81997;BME280;71500;50.806;8.774;2023-11-21T11:01:25;99579.46;;;10.27;73.36
81997;BME280;71500;50.806;8.774;2023-11-21T11:04:00;99575.23;;;10.21;73.66
81997;BME280;71500;50.806;8.774;2023-11-21T11:06:32;99579.19;;;10.16;73.93
81997;BME280;71500;50.806;8.774;2023-11-21T11:09:04;99580.30;;;10.12;73.96
81997;BME280;71500;50.806;8.774;2023-11-21T11:11:38;99580.77;;;10.09;74.38
81997;BME280;71500;50.806;8.774;2023-11-21T11:14:12;99579.05;;;10.07;74.61
81997;BME280;71500;50.806;8.774;2023-11-21T11:16:43;99575.52;;;10.10;74.50
81997;BME280;71500;50.806;8.774;2023-11-21T11:19:15;99578.77;;;10.13;74.66
81997;BME280;71500;50.806;8.774;2023-11-21T11:21:53;99577.76;;;10.18;74.89
81997;BME280;71500;50.806;8.774;2023-11-21T11:24:49;99578.23;;;10.21;74.76
81997;BME280;71500;50.806;8.774;2023-11-21T11:27:36;99583.23;;;10.28;74.71
81997;BME280;71500;50.806;8.774;2023-11-21T11:30:27;99585.66;;;10.34;74.83
81997;BME280;71500;50.806;8.774;2023-11-21T11:33:14;99582.94;;;10.39;74.82
81997;BME280;71500;50.806;8.774;2023-11-21T11:36:00;99586.08;;;10.43;74.92
81997;BME280;71500;50.806;8.774;2023-11-21T11:38:34;99586.14;;;10.47;74.93
81997;BME280;71500;50.806;8.774;2023-11-21T11:41:08;99587.90;;;10.49;74.99
81997;BME280;71500;50.806;8.774;2023-11-21T11:43:40;99590.68;;;10.50;75.03
81997;BME280;71500;50.806;8.774;2023-11-21T11:46:14;99590.40;;;10.51;75.13
81997;BME280;71500;50.806;8.774;2023-11-21T11:48:46;99588.46;;;10.48;75.21
81997;BME280;71500;50.806;8.774;2023-11-21T11:51:17;99591.06;;;10.47;75.30
81997;BME280;71500;50.806;8.774;2023-11-21T11:53:51;99588.35;;;10.46;75.42
81997;BME280;71500;50.806;8.774;2023-11-21T11:56:27;99584.94;;;10.44;75.39
81997;BME280;71500;50.806;8.774;2023-11-21T11:59:01;99582.69;;;10.45;75.55
81997;BME280;71500;50.806;8.774;2023-11-21T12:01:34;99575.25;;;10.42;75.69
81997;BME280;71500;50.806;8.774;2023-11-21T12:07:05;99591.14;;;10.44;75.85
81997;BME280;71500;50.806;8.774;2023-11-21T12:09:38;99590.58;;;10.43;76.01
81997;BME280;71500;50.806;8.774;2023-11-21T12:12:11;99589.84;;;10.41;75.91
81997;BME280;71500;50.806;8.774;2023-11-21T12:14:42;99596.52;;;10.40;76.05
81997;BME280;71500;50.806;8.774;2023-11-21T12:17:16;99601.91;;;10.39;76.11
81997;BME280;71500;50.806;8.774;2023-11-21T12:19:48;99601.45;;;10.38;76.21
81997;BME280;71500;50.806;8.774;2023-11-21T12:22:21;99597.41;;;10.28;76.26
81997;BME280;71500;50.806;8.774;2023-11-21T12:24:54;99595.93;;;10.17;76.50
81997;BME280;71500;50.806;8.774;2023-11-21T12:27:26;99596.44;;;10.08;76.78
81997;BME280;71500;50.806;8.774;2023-11-21T12:29:57;99592.96;;;10.01;76.89
81997;BME280;71500;50.806;8.774;2023-11-21T12:32:29;99593.92;;;9.94;77.03
81997;BME280;71500;50.806;8.774;2023-11-21T12:35:00;99596.61;;;9.90;77.28
81997;BME280;71500;50.806;8.774;2023-11-21T12:37:33;99602.20;;;9.93;77.45
81997;BME280;71500;50.806;8.774;2023-11-21T12:40:07;99598.42;;;9.95;77.53
81997;BME280;71500;50.806;8.774;2023-11-21T12:42:42;99595.84;;;9.98;77.49
81997;BME280;71500;50.806;8.774;2023-11-21T12:45:24;99593.30;;;10.01;77.41
81997;BME280;71500;50.806;8.774;2023-11-21T12:47:59;99600.81;;;10.02;77.14
81997;BME280;71500;50.806;8.774;2023-11-21T12:50:32;99605.27;;;10.02;77.46
81997;BME280;71500;50.806;8.774;2023-11-21T12:53:07;99608.09;;;10.04;77.66
81997;BME280;71500;50.806;8.774;2023-11-21T12:55:40;99609.55;;;10.08;77.78
81997;BME280;71500;50.806;8.774;2023-11-21T12:58:12;99615.55;;;10.10;77.65
81997;BME280;71500;50.806;8.774;2023-11-21T13:00:47;99613.30;;;10.12;77.64
81997;BME280;71500;50.806;8.774;2023-11-21T13:03:19;99614.27;;;10.13;77.71
81997;BME280;71500;50.806;8.774;2023-11-21T13:05:56;99616.02;;;10.13;77.63
81997;BME280;71500;50.806;8.774;2023-11-21T13:08:28;99617.11;;;10.13;77.51
81997;BME280;71500;50.806;8.774;2023-11-21T13:11:01;99611.36;;;10.12;77.50
81997;BME280;71500;50.806;8.774;2023-11-21T13:13:33;99615.06;;;10.10;77.56
81997;BME280;71500;50.806;8.774;2023-11-21T13:16:06;99615.51;;;10.09;77.67
81997;BME280;71500;50.806;8.774;2023-11-21T13:18:38;99611.59;;;10.09;77.83
81997;BME280;71500;50.806;8.774;2023-11-21T13:21:12;99615.05;;;10.10;77.80
81997;BME280;71500;50.806;8.774;2023-11-21T13:23:45;99613.75;;;10.13;77.88
81997;BME280;71500;50.806;8.774;2023-11-21T13:26:18;99621.29;;;10.15;77.53
81997;BME280;71500;50.806;8.774;2023-11-21T13:28:50;99625.45;;;10.17;77.70
81997;BME280;71500;50.806;8.774;2023-11-21T13:31:22;99628.17;;;10.20;77.83
81997;BME280;71500;50.806;8.774;2023-11-21T13:33:57;99636.58;;;10.21;77.84
81997;BME280;71500;50.806;8.774;2023-11-21T13:36:35;99634.27;;;10.21;77.87
81997;BME280;71500;50.806;8.774;2023-11-21T13:39:06;99636.68;;;10.22;77.95